Time;durP1;ratioP1;P1;durP2;ratioP2;P2;SDS_P1;SDS_P2;PMS_P1;PMS_P2;Temp;Humidity;BMP_temperature;BMP_pressure;BME280_temperature;BME280_humidity;BME280_pressure;Samples;Min_cycle;Max_cycle;Signal;HPM_P1;HPM_P2
2023/04/19 00:00:07;;;;;;;10.30;8.70;;;16.60;53.70;;;;;;5002874;28;20205;-49
2023/04/19 00:02:34;;;;;;;11.40;10.23;;;16.50;54.10;;;;;;5001787;28;20194;-48
2023/04/19 00:05:00;;;;;;;11.03;9.90;;;16.50;54.20;;;;;;4997923;28;20939;-49
2023/04/19 00:07:26;;;;;;;9.97;8.97;;;16.40;54.20;;;;;;5003660;28;20472;-50
2023/04/19 00:09:51;;;;;;;10.47;9.37;;;16.10;54.80;;;;;;5008666;28;20201;-49
2023/04/19 00:12:17;;;;;;;10.80;9.70;;;16.30;54.90;;;;;;5003051;28;20196;-49
2023/04/19 00:14:43;;;;;;;9.87;8.60;;;16.30;54.50;;;;;;5004056;28;20197;-50
2023/04/19 00:17:10;;;;;;;10.30;9.13;;;16.30;54.50;;;;;;5002047;28;20601;-49
2023/04/19 00:19:36;;;;;;;10.23;8.90;;;15.90;55.20;;;;;;4997905;28;20787;-49
2023/04/19 00:22:02;;;;;;;10.40;9.13;;;16.00;55.50;;;;;;4992533;28;20440;-49
2023/04/19 00:24:27;;;;;;;13.40;10.63;;;16.20;55.20;;;;;;5000155;28;20480;-49
2023/04/19 00:26:53;;;;;;;11.40;9.80;;;16.30;54.80;;;;;;5001719;28;20191;-51
2023/04/19 00:29:18;;;;;;;10.40;9.30;;;16.40;54.60;;;;;;5010805;28;20248;-49
2023/04/19 00:31:44;;;;;;;10.67;9.57;;;16.50;54.50;;;;;;5008755;28;20206;-49
2023/04/19 00:34:09;;;;;;;10.07;9.03;;;16.60;54.30;;;;;;5005846;28;20222;-51
2023/04/19 00:36:36;;;;;;;11.33;9.93;;;16.60;54.20;;;;;;5004130;28;20217;-48
2023/04/19 00:39:02;;;;;;;9.33;8.33;;;16.70;54.20;;;;;;5010503;28;20202;-49
2023/04/19 00:41:27;;;;;;;10.87;9.77;;;16.70;54.20;;;;;;5008967;28;20567;-49
2023/04/19 00:43:53;;;;;;;10.43;9.33;;;16.70;54.00;;;;;;5009010;28;20681;-50
2023/04/19 00:46:19;;;;;;;15.37;10.60;;;16.60;53.80;;;;;;5004086;28;20718;-50
2023/04/19 00:48:46;;;;;;;10.93;8.93;;;16.50;54.10;;;;;;5005797;28;20194;-48
2023/04/19 00:51:11;;;;;;;10.53;9.43;;;16.40;54.30;;;;;;5005212;28;20449;-49
2023/04/19 00:53:38;;;;;;;11.27;9.30;;;16.30;54.70;;;;;;5005612;28;20560;-49
2023/04/19 00:56:05;;;;;;;13.00;10.40;;;16.30;54.70;;;;;;5007474;28;20190;-49
2023/04/19 00:58:31;;;;;;;12.60;9.73;;;16.20;54.70;;;;;;5008942;28;20450;-49
2023/04/19 01:00:56;;;;;;;11.57;9.53;;;16.30;54.70;;;;;;5003129;28;20449;-49
2023/04/19 01:03:22;;;;;;;10.87;9.77;;;16.40;54.50;;;;;;5004328;28;20217;-49
2023/04/19 01:05:48;;;;;;;12.90;9.93;;;16.50;54.40;;;;;;5002733;28;20195;-52
2023/04/19 01:08:14;;;;;;;13.10;10.83;;;16.50;54.20;;;;;;5009357;28;20190;-49
2023/04/19 01:10:39;;;;;;;10.80;9.70;;;16.50;54.20;;;;;;5009026;28;20198;-49
2023/04/19 01:13:05;;;;;;;11.70;10.00;;;16.60;54.20;;;;;;5007959;28;21194;-51
2023/04/19 01:15:30;;;;;;;11.57;10.20;;;16.60;54.10;;;;;;4998170;28;20194;-49
2023/04/19 01:17:56;;;;;;;12.20;10.00;;;16.60;54.20;;;;;;4999986;28;20201;-49
2023/04/19 01:20:22;;;;;;;13.43;10.60;;;16.50;54.10;;;;;;5001541;28;20540;-49
2023/04/19 01:22:48;;;;;;;11.27;9.90;;;16.50;54.20;;;;;;5001916;28;20200;-52
2023/04/19 01:25:13;;;;;;;11.20;10.10;;;16.50;54.10;;;;;;5000597;28;20194;-49
2023/04/19 01:27:39;;;;;;;11.10;9.90;;;16.40;54.20;;;;;;5005619;28;20194;-49
2023/04/19 01:30:05;;;;;;;12.20;9.37;;;16.40;54.10;;;;;;5006075;28;20197;-51
2023/04/19 01:32:31;;;;;;;13.60;10.77;;;16.40;54.20;;;;;;5011164;28;20276;-49
2023/04/19 01:34:56;;;;;;;11.50;10.10;;;16.50;54.30;;;;;;5006713;28;20535;-50
2023/04/19 01:37:22;;;;;;;16.07;10.30;;;16.50;54.40;;;;;;5008114;28;20198;-54
2023/04/19 01:39:48;;;;;;;12.10;9.90;;;16.50;54.40;;;;;;5002992;28;20190;-50
2023/04/19 01:42:13;;;;;;;12.60;10.57;;;16.50;54.40;;;;;;5004084;28;20686;-50
2023/04/19 01:44:39;;;;;;;11.50;9.33;;;16.40;54.40;;;;;;5009205;28;20376;-50
2023/04/19 01:47:04;;;;;;;11.00;9.80;;;16.40;54.40;;;;;;5005004;28;20202;-50
2023/04/19 01:49:30;;;;;;;10.93;9.73;;;16.50;54.50;;;;;;4998989;28;20198;-49
2023/04/19 01:51:55;;;;;;;13.07;10.40;;;16.50;54.60;;;;;;5002389;28;20206;-49
2023/04/19 01:54:21;;;;;;;11.37;10.23;;;16.50;54.60;;;;;;5005781;28;20324;-49
2023/04/19 01:56:47;;;;;;;10.93;9.40;;;16.50;54.60;;;;;;5010553;28;20203;-51
2023/04/19 01:59:12;;;;;;;11.23;10.03;;;16.50;54.50;;;;;;5011567;28;20398;-50
2023/04/19 02:01:38;;;;;;;14.50;10.90;;;16.50;54.50;;;;;;5004421;28;20221;-50
2023/04/19 02:04:03;;;;;;;11.60;10.40;;;16.40;54.60;;;;;;5004353;28;20225;-50
2023/04/19 02:06:30;;;;;;;14.00;10.70;;;16.30;54.80;;;;;;5009007;28;20202;-49
2023/04/19 02:08:56;;;;;;;12.00;10.70;;;16.30;54.70;;;;;;5009916;28;20229;-50
2023/04/19 02:11:21;;;;;;;16.10;11.57;;;16.30;55.00;;;;;;5002339;28;20559;-49
2023/04/19 02:13:47;;;;;;;12.17;10.80;;;16.30;55.10;;;;;;5011891;28;20292;-50
2023/04/19 02:16:12;;;;;;;12.30;10.77;;;16.30;55.00;;;;;;5011407;28;20197;-53
2023/04/19 02:18:39;;;;;;;12.60;11.20;;;16.30;55.00;;;;;;5007862;28;20206;-50
2023/04/19 02:21:06;;;;;;;12.53;11.23;;;16.30;54.80;;;;;;5006224;28;20237;-50
2023/04/19 02:23:31;;;;;;;12.97;11.23;;;16.10;55.10;;;;;;4998805;28;20493;-49
2023/04/19 02:25:57;;;;;;;13.23;11.83;;;16.00;55.30;;;;;;5007862;28;20441;-49
2023/04/19 02:28:22;;;;;;;12.53;11.23;;;15.90;55.50;;;;;;5003550;28;20661;-50
2023/04/19 02:30:48;;;;;;;13.67;11.20;;;16.00;55.40;;;;;;5009730;28;20546;-49
2023/04/19 02:33:14;;;;;;;12.60;11.30;;;16.00;55.20;;;;;;5009848;28;20719;-49
2023/04/19 02:35:40;;;;;;;13.20;10.80;;;16.00;55.40;;;;;;5009855;28;20202;-50
2023/04/19 02:38:05;;;;;;;12.53;11.23;;;16.00;55.60;;;;;;5003235;28;20452;-50
2023/04/19 02:40:31;;;;;;;13.03;11.30;;;16.00;55.60;;;;;;5007285;28;20194;-50
2023/04/19 02:42:56;;;;;;;11.70;10.50;;;16.10;55.40;;;;;;5009923;28;20573;-51
2023/04/19 02:45:22;;;;;;;12.60;11.30;;;16.10;55.40;;;;;;5008166;28;20215;-52
2023/04/19 02:47:47;;;;;;;11.77;10.60;;;16.10;55.30;;;;;;4996473;28;20209;-53
2023/04/19 02:50:15;;;;;;;13.07;11.40;;;16.10;55.40;;;;;;5005725;28;20612;-50
2023/04/19 02:52:40;;;;;;;11.87;10.67;;;16.10;55.40;;;;;;4997104;28;20207;-54
2023/04/19 02:55:06;;;;;;;12.50;11.07;;;16.00;55.40;;;;;;5006467;28;21744;-54
2023/04/19 02:57:32;;;;;;;12.70;11.37;;;16.00;55.40;;;;;;4996897;28;20213;-54
2023/04/19 02:59:58;;;;;;;12.70;10.80;;;16.10;55.40;;;;;;5010096;28;20190;-53
2023/04/19 03:02:24;;;;;;;14.40;12.90;;;16.10;55.40;;;;;;5003180;28;20221;-53
2023/04/19 03:04:51;;;;;;;13.40;10.67;;;16.00;55.30;;;;;;5002010;28;20232;-53
2023/04/19 03:07:17;;;;;;;12.97;11.50;;;15.90;55.40;;;;;;5005004;28;20441;-52
2023/04/19 03:09:43;;;;;;;12.53;11.30;;;15.80;55.30;;;;;;5007693;28;20445;-54
2023/04/19 03:12:08;;;;;;;12.57;11.27;;;15.80;55.60;;;;;;5001700;28;20195;-54
2023/04/19 03:14:34;;;;;;;12.57;11.30;;;15.90;55.60;;;;;;5008530;28;20201;-53
2023/04/19 03:17:00;;;;;;;12.03;10.83;;;15.90;55.50;;;;;;5005825;28;20205;-53
2023/04/19 03:19:25;;;;;;;13.17;11.67;;;15.90;55.30;;;;;;5006149;28;20252;-50
2023/04/19 03:21:51;;;;;;;13.50;12.10;;;16.00;55.30;;;;;;4995840;28;20228;-51
2023/04/19 03:24:27;;;;;;;13.37;12.07;;;15.90;55.20;;;;;;4996441;28;20291;-53
2023/04/19 03:26:53;;;;;;;13.40;11.47;;;15.90;55.60;;;;;;5006133;28;20293;-52
2023/04/19 03:29:19;;;;;;;12.77;11.43;;;15.90;55.50;;;;;;5006224;28;20531;-52
2023/04/19 03:31:45;;;;;;;13.97;12.20;;;15.80;55.60;;;;;;4994082;28;20457;-53
2023/04/19 03:34:10;;;;;;;12.97;11.57;;;15.70;55.80;;;;;;4997285;28;20256;-51
2023/04/19 03:36:37;;;;;;;13.67;12.03;;;15.60;55.90;;;;;;5003267;28;20639;-54
2023/04/19 03:39:03;;;;;;;17.00;12.47;;;15.50;55.90;;;;;;5007919;28;20198;-54
2023/04/19 03:41:28;;;;;;;13.30;12.00;;;15.50;56.00;;;;;;5001098;28;20455;-50
2023/04/19 03:43:54;;;;;;;13.67;12.00;;;15.30;56.10;;;;;;5007605;28;20955;-51
2023/04/19 03:46:20;;;;;;;14.67;12.00;;;15.10;56.40;;;;;;4997521;28;20626;-52
2023/04/19 03:48:46;;;;;;;15.13;12.87;;;15.10;56.60;;;;;;5007143;28;20264;-55
2023/04/19 03:51:12;;;;;;;13.43;12.00;;;15.10;56.60;;;;;;4992995;28;20277;-54
2023/04/19 03:53:38;;;;;;;13.57;12.20;;;15.10;56.60;;;;;;5000064;28;20482;-53
2023/04/19 03:56:04;;;;;;;12.80;11.43;;;14.90;57.00;;;;;;4999864;28;20464;-51
2023/04/19 03:58:29;;;;;;;14.27;12.83;;;14.80;57.30;;;;;;5007812;28;20245;-53
2023/04/19 04:00:55;;;;;;;13.10;11.60;;;14.90;57.30;;;;;;4998325;28;20539;-54
2023/04/19 04:03:20;;;;;;;11.47;10.27;;;15.00;57.20;;;;;;5010454;28;20225;-54
2023/04/19 04:05:46;;;;;;;11.03;10.03;;;15.00;57.10;;;;;;5007974;28;20204;-51
2023/04/19 04:08:12;;;;;;;12.20;10.90;;;15.10;57.00;;;;;;5001817;28;20200;-54
2023/04/19 04:10:38;;;;;;;14.50;11.17;;;15.10;56.80;;;;;;5004522;28;20440;-54
2023/04/19 04:13:04;;;;;;;13.97;11.43;;;15.10;56.70;;;;;;4995800;28;20454;-50
2023/04/19 04:15:29;;;;;;;19.37;11.60;;;15.10;56.70;;;;;;5002492;28;20249;-50
2023/04/19 04:17:55;;;;;;;15.03;12.47;;;15.00;56.90;;;;;;5007875;28;20193;-54
2023/04/19 04:20:21;;;;;;;12.57;11.20;;;14.90;56.80;;;;;;5006856;28;20191;-53
2023/04/19 04:22:46;;;;;;;14.27;12.77;;;14.80;57.40;;;;;;4997677;28;20654;-50
2023/04/19 04:25:14;;;;;;;13.13;11.77;;;14.80;57.10;;;;;;4996363;28;20212;-55
2023/04/19 04:27:41;;;;;;;15.07;12.37;;;14.70;57.30;;;;;;5002033;28;20198;-54
2023/04/19 04:30:08;;;;;;;15.60;12.77;;;14.70;57.20;;;;;;5007475;28;20448;-54
2023/04/19 04:32:37;;;;;;;13.47;12.07;;;14.70;57.30;;;;;;5011634;28;20927;-54
2023/04/19 04:35:03;;;;;;;12.43;11.13;;;14.80;57.20;;;;;;5006520;28;20507;-52
2023/04/19 04:37:33;;;;;;;13.27;11.87;;;14.80;57.00;;;;;;5009809;28;20459;-54
2023/04/19 04:40:00;;;;;;;13.30;11.13;;;14.90;57.10;;;;;;5009463;28;20457;-54
2023/04/19 04:42:26;;;;;;;14.53;12.73;;;14.90;56.90;;;;;;5000960;28;21029;-54
2023/04/19 04:44:52;;;;;;;12.90;11.60;;;14.90;56.80;;;;;;4999252;28;20540;-54
2023/04/19 04:47:19;;;;;;;12.97;11.67;;;14.90;56.80;;;;;;4998560;28;20500;-51
2023/04/19 04:49:45;;;;;;;14.40;12.00;;;14.90;56.70;;;;;;5000631;28;20587;-52
2023/04/19 04:52:11;;;;;;;12.80;11.37;;;15.00;56.70;;;;;;5012133;28;20515;-53
2023/04/19 04:54:36;;;;;;;14.00;11.50;;;15.00;56.60;;;;;;4965293;28;1079145;-53
2023/04/19 04:57:02;;;;;;;12.30;11.00;;;15.00;56.50;;;;;;5002512;28;20457;-51
2023/04/19 04:59:28;;;;;;;12.47;11.00;;;15.10;56.60;;;;;;5012129;28;20197;-50
2023/04/19 05:01:54;;;;;;;12.70;10.60;;;15.10;56.50;;;;;;5007064;28;20518;-48
2023/04/19 05:04:19;;;;;;;13.10;11.57;;;15.10;56.40;;;;;;5007392;28;20237;-53
2023/04/19 05:06:45;;;;;;;13.63;12.20;;;15.10;56.40;;;;;;5002423;28;22695;-50
2023/04/19 05:09:11;;;;;;;13.67;11.63;;;15.10;56.50;;;;;;5010443;28;20190;-52
2023/04/19 05:11:36;;;;;;;13.03;11.73;;;15.10;56.40;;;;;;5010053;28;20253;-49
2023/04/19 05:14:02;;;;;;;19.93;12.10;;;15.10;56.40;;;;;;5009487;28;20719;-49
2023/04/19 05:16:28;;;;;;;13.73;11.27;;;15.10;56.40;;;;;;5003744;28;20206;-50
2023/04/19 05:18:53;;;;;;;18.50;10.93;;;15.10;56.40;;;;;;5010780;28;20673;-52
2023/04/19 05:21:19;;;;;;;13.93;10.40;;;15.10;56.60;;;;;;4995963;28;20209;-49
2023/04/19 05:23:45;;;;;;;14.13;11.63;;;15.20;57.50;;;;;;4992236;28;20230;-49
2023/04/19 05:26:14;;;;;;;14.13;12.23;;;15.40;57.80;;;;;;5000831;28;20210;-49
2023/04/19 05:28:41;;;;;;;14.90;11.70;;;15.50;57.30;;;;;;5008088;28;20271;-51
2023/04/19 05:31:10;;;;;;;15.37;11.27;;;15.60;56.50;;;;;;5000759;28;20449;-50
2023/04/19 05:33:36;;;;;;;14.00;12.50;;;15.80;56.00;;;;;;5006618;28;20452;-49
2023/04/19 05:36:01;;;;;;;14.03;12.43;;;15.80;55.70;;;;;;4996435;28;20450;-49
2023/04/19 05:38:27;;;;;;;16.10;12.13;;;15.90;55.20;;;;;;5001948;28;20421;-49
2023/04/19 05:40:52;;;;;;;12.60;10.60;;;15.90;55.10;;;;;;4998511;28;20541;-49
2023/04/19 05:43:18;;;;;;;13.23;11.17;;;16.00;55.40;;;;;;4999971;28;20301;-52
2023/04/19 05:45:44;;;;;;;13.97;12.57;;;16.10;55.30;;;;;;5002499;28;20234;-51
2023/04/19 05:48:09;;;;;;;13.30;12.00;;;16.20;55.40;;;;;;4999422;28;20197;-49
2023/04/19 05:50:35;;;;;;;14.20;12.20;;;16.30;55.30;;;;;;5002957;28;20195;-52
2023/04/19 05:53:02;;;;;;;13.77;10.43;;;16.40;55.30;;;;;;5004793;28;20190;-48
2023/04/19 05:55:27;;;;;;;13.53;11.30;;;16.50;55.10;;;;;;5011315;28;20432;-52
2023/04/19 05:57:53;;;;;;;13.17;11.87;;;16.60;54.70;;;;;;5011281;28;20441;-48
2023/04/19 06:00:19;;;;;;;13.00;11.30;;;16.70;54.40;;;;;;5004889;28;20225;-50
2023/04/19 06:02:44;;;;;;;13.20;11.50;;;16.70;54.10;;;;;;5009754;28;20662;-49
2023/04/19 06:05:10;;;;;;;14.63;12.27;;;16.70;54.00;;;;;;4995253;28;20244;-49
2023/04/19 06:07:36;;;;;;;13.37;11.83;;;16.70;53.90;;;;;;5006245;28;20193;-49
2023/04/19 06:10:01;;;;;;;12.50;10.30;;;16.70;53.70;;;;;;5005822;28;20638;-50
2023/04/19 06:12:27;;;;;;;12.20;9.03;;;16.70;53.60;;;;;;5009981;28;20728;-49
2023/04/19 06:14:53;;;;;;;11.47;9.83;;;16.80;54.20;;;;;;5008217;28;20233;-50
2023/04/19 06:17:23;;;;;;;12.90;11.60;;;16.90;54.70;;;;;;5000912;28;20194;-50
2023/04/19 06:19:50;;;;;;;13.60;10.07;;;17.00;54.20;;;;;;5006437;28;20454;-49
2023/04/19 06:22:15;;;;;;;10.53;9.43;;;17.10;53.90;;;;;;5002814;28;20469;-50
2023/04/19 06:24:44;;;;;;;12.13;8.30;;;17.30;54.40;;;;;;5000334;28;20591;-47
2023/04/19 06:27:09;;;;;;;7.27;6.50;;;17.30;55.10;;;;;;5006316;28;20193;-51
2023/04/19 06:29:35;;;;;;;10.00;8.27;;;17.30;55.70;;;;;;5006857;28;20532;-52
2023/04/19 06:32:00;;;;;;;9.83;7.30;;;17.40;55.50;;;;;;4999517;28;20230;-50
2023/04/19 06:34:26;;;;;;;11.13;9.03;;;17.60;54.70;;;;;;4995571;28;20217;-52
2023/04/19 06:36:52;;;;;;;12.43;11.10;;;17.90;52.10;;;;;;5009629;28;20272;-51
2023/04/19 06:39:17;;;;;;;12.47;11.20;;;18.00;51.50;;;;;;5010289;28;20225;-51
2023/04/19 06:41:43;;;;;;;21.70;12.50;;;18.10;52.10;;;;;;5009376;28;20229;-50
2023/04/19 06:44:08;;;;;;;13.03;11.60;;;18.20;51.70;;;;;;5007824;28;20233;-50
2023/04/19 06:46:34;;;;;;;13.60;12.17;;;18.30;51.60;;;;;;5009196;28;20198;-50
2023/04/19 06:49:00;;;;;;;14.57;10.97;;;18.30;51.10;;;;;;5009576;28;20280;-50
2023/04/19 06:51:25;;;;;;;8.27;6.80;;;18.40;51.40;;;;;;5005386;28;20723;-50
2023/04/19 06:53:51;;;;;;;11.63;8.67;;;18.50;52.10;;;;;;5001268;28;20265;-50
2023/04/19 06:56:16;;;;;;;7.77;7.03;;;18.70;51.00;;;;;;5005839;28;20198;-50
2023/04/19 06:58:42;;;;;;;8.67;7.87;;;18.80;51.30;;;;;;5005358;28;20190;-48
2023/04/19 07:01:08;;;;;;;9.60;8.60;;;18.70;51.40;;;;;;5008343;28;20591;-49
2023/04/19 07:03:33;;;;;;;14.00;7.53;;;18.60;51.20;;;;;;5007233;28;20229;-51
2023/04/19 07:05:59;;;;;;;16.60;6.83;;;18.80;51.50;;;;;;5007110;28;20567;-49
2023/04/19 07:08:25;;;;;;;11.27;10.00;;;18.80;51.50;;;;;;5002479;28;20202;-49
2023/04/19 07:10:51;;;;;;;10.63;8.13;;;19.00;50.90;;;;;;5005989;28;20661;-49
2023/04/19 07:13:17;;;;;;;8.73;7.93;;;19.20;50.10;;;;;;5009846;28;20603;-48
2023/04/19 07:15:43;;;;;;;9.37;8.47;;;19.20;49.70;;;;;;5006385;28;20658;-49
2023/04/19 07:18:10;;;;;;;8.07;7.37;;;19.30;49.10;;;;;;5009320;28;20192;-51
2023/04/19 07:20:35;;;;;;;8.90;6.80;;;19.40;49.30;;;;;;5005313;28;20198;-50
2023/04/19 07:23:01;;;;;;;7.40;6.70;;;19.50;49.40;;;;;;5007835;28;20495;-48
2023/04/19 07:25:26;;;;;;;9.90;7.13;;;19.60;49.40;;;;;;5005747;28;20201;-50
2023/04/19 07:27:53;;;;;;;7.47;6.77;;;19.80;49.50;;;;;;5007683;28;20198;-48
2023/04/19 07:30:19;;;;;;;9.37;8.47;;;20.10;50.10;;;;;;5009318;28;20201;-50
2023/04/19 07:32:45;;;;;;;6.70;6.10;;;20.30;48.40;;;;;;5000006;28;20434;-48
2023/04/19 07:35:11;;;;;;;8.60;7.23;;;20.30;48.70;;;;;;5009016;28;20464;-51
2023/04/19 07:37:36;;;;;;;24.00;8.90;;;20.30;47.00;;;;;;5011106;28;20194;-49
2023/04/19 07:40:04;;;;;;;8.10;7.27;;;20.10;49.20;;;;;;5008677;28;20259;-50
2023/04/19 07:42:29;;;;;;;9.33;7.97;;;20.10;49.00;;;;;;5010417;28;20212;-46
2023/04/19 07:44:55;;;;;;;7.93;7.13;;;20.10;47.50;;;;;;5007825;28;20504;-46
2023/04/19 07:47:21;;;;;;;8.73;7.83;;;20.00;48.60;;;;;;5006868;28;20194;-47
2023/04/19 07:49:51;;;;;;;8.33;6.40;;;19.90;49.00;;;;;;5003800;28;20277;-47
2023/04/19 07:52:17;;;;;;;8.00;7.20;;;20.00;48.60;;;;;;5005935;28;20197;-49
2023/04/19 07:54:43;;;;;;;8.07;7.30;;;20.00;49.00;;;;;;5006376;28;20512;-49
2023/04/19 07:57:08;;;;;;;8.93;6.50;;;20.20;48.80;;;;;;5005956;28;20479;-51
2023/04/19 07:59:34;;;;;;;8.50;7.70;;;20.40;48.60;;;;;;5009458;28;20208;-49
2023/04/19 08:02:00;;;;;;;6.83;6.10;;;20.60;48.00;;;;;;5004545;28;20205;-49
2023/04/19 08:04:25;;;;;;;7.17;6.47;;;20.80;47.20;;;;;;5006870;28;20257;-51
2023/04/19 08:06:51;;;;;;;7.20;6.40;;;21.00;46.70;;;;;;5006937;28;20194;-50
2023/04/19 08:09:17;;;;;;;10.13;5.77;;;21.10;46.50;;;;;;5009720;28;20229;-47
2023/04/19 08:11:43;;;;;;;8.23;7.50;;;21.00;47.80;;;;;;5007922;28;20887;-47
2023/04/19 08:14:09;;;;;;;7.80;7.10;;;21.30;46.00;;;;;;5009175;28;20248;-49
2023/04/19 08:16:34;;;;;;;8.70;7.87;;;21.30;44.00;;;;;;5009872;28;20194;-51
2023/04/19 08:19:00;;;;;;;9.23;8.43;;;20.90;44.30;;;;;;5002095;28;20209;-48
2023/04/19 08:21:25;;;;;;;8.03;7.23;;;20.30;44.70;;;;;;5006422;28;20210;-49
2023/04/19 08:23:51;;;;;;;9.20;8.17;;;20.10;45.80;;;;;;4994923;28;20291;-47
2023/04/19 08:26:17;;;;;;;10.00;7.60;;;20.10;45.80;;;;;;5004441;28;20572;-51
2023/04/19 08:28:42;;;;;;;8.77;7.90;;;20.00;46.10;;;;;;5008767;28;20198;-49
2023/04/19 08:31:09;;;;;;;10.50;8.30;;;19.60;45.10;;;;;;5009509;28;20194;-51
2023/04/19 08:33:35;;;;;;;9.37;8.50;;;19.30;45.60;;;;;;5006733;28;20194;-49
2023/04/19 08:36:00;;;;;;;11.67;8.03;;;19.30;46.30;;;;;;5003437;28;20510;-47
2023/04/19 08:38:26;;;;;;;8.73;7.93;;;19.10;46.20;;;;;;5006454;28;20449;-48
2023/04/19 08:40:53;;;;;;;12.90;8.60;;;19.00;46.80;;;;;;5002524;28;20618;-49
2023/04/19 08:43:20;;;;;;;10.93;9.20;;;19.00;47.30;;;;;;5005971;28;20341;-46
2023/04/19 08:45:49;;;;;;;8.90;8.00;;;19.20;47.70;;;;;;4998388;28;20850;-49
2023/04/19 08:48:16;;;;;;;8.90;8.00;;;19.40;46.40;;;;;;5002740;28;20932;-51
2023/04/19 08:50:44;;;;;;;9.10;8.20;;;19.40;46.30;;;;;;5004934;28;20448;-47
2023/04/19 08:53:10;;;;;;;9.47;8.57;;;19.40;46.60;;;;;;5005800;28;20854;-50
2023/04/19 08:55:39;;;;;;;9.60;8.73;;;19.20;46.60;;;;;;5002223;28;20448;-50
2023/04/19 08:58:05;;;;;;;10.53;7.27;;;19.10;46.40;;;;;;5004778;28;20202;-48
2023/04/19 09:00:32;;;;;;;9.70;7.70;;;18.90;46.50;;;;;;5001870;28;21018;-52
2023/04/19 09:02:58;;;;;;;11.33;8.30;;;19.00;47.10;;;;;;5002943;28;20452;-47
2023/04/19 09:05:24;;;;;;;8.67;7.87;;;19.00;46.50;;;;;;5002418;28;20526;-49
2023/04/19 09:07:50;;;;;;;12.63;10.03;;;19.00;46.50;;;;;;5005863;28;20186;-47
2023/04/19 09:10:19;;;;;;;9.23;8.37;;;19.00;47.30;;;;;;5002178;28;20202;-49
2023/04/19 09:13:02;;;;;;;8.93;8.07;;;19.00;46.60;;;;;;4995858;28;20498;-47
2023/04/19 09:15:36;;;;;;;10.10;7.50;;;19.10;47.20;;;;;;5010449;28;21281;-47
2023/04/19 09:18:08;;;;;;;7.60;6.90;;;19.10;47.20;;;;;;5006653;28;20562;-48
2023/04/19 09:20:41;;;;;;;8.80;7.90;;;19.00;47.60;;;;;;5005432;28;20551;-50
2023/04/19 09:23:12;;;;;;;8.00;7.00;;;19.20;47.30;;;;;;4996092;28;20452;-50
2023/04/19 09:25:39;;;;;;;10.07;7.40;;;19.20;45.80;;;;;;5002923;28;20444;-52
2023/04/19 09:28:12;;;;;;;10.60;8.17;;;19.20;46.20;;;;;;5008131;28;20535;-51
2023/04/19 09:30:39;;;;;;;8.00;7.20;;;19.10;46.10;;;;;;5008135;28;20820;-52
2023/04/19 09:33:05;;;;;;;11.37;9.03;;;18.90;46.60;;;;;;5005364;28;21089;-48
2023/04/19 09:35:40;;;;;;;10.37;8.40;;;19.00;46.80;;;;;;5001937;28;20547;-47
2023/04/19 09:38:06;;;;;;;8.60;7.70;;;18.90;45.90;;;;;;5009345;28;20280;-48
2023/04/19 09:40:32;;;;;;;9.37;8.43;;;19.20;45.80;;;;;;5001174;28;20600;-48
2023/04/19 09:42:57;;;;;;;9.20;8.30;;;19.20;46.70;;;;;;4998040;28;20190;-47
2023/04/19 09:45:23;;;;;;;10.57;8.10;;;19.20;47.30;;;;;;5002673;28;20194;-48
2023/04/19 09:48:03;;;;;;;9.17;7.80;;;19.20;47.40;;;;;;5001527;28;20197;-48
2023/04/19 09:50:29;;;;;;;9.73;7.57;;;19.20;47.70;;;;;;5004237;28;20206;-51
2023/04/19 09:52:56;;;;;;;9.00;8.13;;;19.30;47.60;;;;;;5003982;28;21006;-47
2023/04/19 09:55:22;;;;;;;10.90;8.90;;;19.50;47.20;;;;;;5000334;28;20204;-51
2023/04/19 09:57:48;;;;;;;8.77;7.87;;;19.50;46.70;;;;;;5007472;28;20477;-47
2023/04/19 10:00:14;;;;;;;9.00;8.07;;;19.60;46.90;;;;;;5007752;28;20484;-49
2023/04/19 10:02:41;;;;;;;8.97;8.07;;;19.30;45.20;;;;;;5000384;28;20206;-47
2023/04/19 10:05:08;;;;;;;9.00;8.10;;;19.00;46.20;;;;;;5000259;28;20985;-47
2023/04/19 10:07:35;;;;;;;10.20;9.10;;;18.90;47.10;;;;;;5009601;28;20459;-48
2023/04/19 10:10:02;;;;;;;7.80;7.00;;;18.70;47.50;;;;;;5011252;28;20473;-48
2023/04/19 10:12:30;;;;;;;9.53;8.50;;;18.80;48.00;;;;;;5001482;28;20478;-51
2023/04/19 10:14:58;;;;;;;8.50;7.70;;;19.00;48.20;;;;;;5017115;28;20544;-47
2023/04/19 10:17:24;;;;;;;8.37;7.57;;;19.00;47.70;;;;;;5008803;28;20481;-48
2023/04/19 10:20:00;;;;;;;11.40;8.97;;;19.00;47.80;;;;;;4998316;28;20458;-51
2023/04/19 10:22:26;;;;;;;9.20;8.27;;;19.00;47.60;;;;;;5006439;28;21705;-49
2023/04/19 10:25:12;;;;;;;9.87;8.50;;;18.90;47.40;;;;;;5005343;28;20488;-48
2023/04/19 10:27:40;;;;;;;9.33;8.40;;;18.90;47.40;;;;;;5004989;28;20536;-50
2023/04/19 10:30:12;;;;;;;8.30;7.50;;;19.00;47.90;;;;;;4999067;28;20866;-51
2023/04/19 10:32:39;;;;;;;8.60;7.80;;;19.10;47.30;;;;;;4998765;28;20457;-50
2023/04/19 10:35:20;;;;;;;9.20;8.30;;;19.20;48.10;;;;;;4995425;28;20448;-50
2023/04/19 10:38:10;;;;;;;9.60;7.73;;;19.30;47.90;;;;;;5000992;28;20452;-49
2023/04/19 10:40:59;;;;;;;8.20;7.47;;;19.40;48.00;;;;;;5007143;28;21248;-53
2023/04/19 10:43:30;;;;;;;9.43;8.40;;;19.50;48.40;;;;;;5005727;28;20480;-52
2023/04/19 10:46:06;;;;;;;8.20;7.40;;;19.60;47.80;;;;;;5006893;28;20847;-53
2023/04/19 10:48:34;;;;;;;9.03;7.67;;;19.60;48.20;;;;;;5003047;28;20460;-52
2023/04/19 10:51:15;;;;;;;8.63;7.60;;;19.50;48.00;;;;;;5005895;28;20449;-53
2023/04/19 10:53:55;;;;;;;9.43;8.40;;;19.40;47.80;;;;;;5008226;28;20575;-52
2023/04/19 10:56:33;;;;;;;8.40;7.50;;;19.40;48.70;;;;;;5004466;28;20548;-52
2023/04/19 11:01:44;;;;;;;8.50;7.70;;;19.60;48.30;;;;;;5007728;28;20814;-51
2023/04/19 11:04:14;;;;;;;9.27;8.37;;;19.60;47.60;;;;;;5006517;28;20484;-51
2023/04/19 11:06:52;;;;;;;8.73;7.87;;;19.60;48.20;;;;;;5006859;28;20440;-53
2023/04/19 11:09:24;;;;;;;8.87;7.97;;;19.40;48.50;;;;;;5006470;28;20449;-49
2023/04/19 11:11:58;;;;;;;9.47;8.47;;;19.40;48.80;;;;;;5009900;28;20542;-53
2023/04/19 11:14:25;;;;;;;8.83;7.90;;;19.30;48.50;;;;;;5009271;28;20947;-49
2023/04/19 11:16:50;;;;;;;10.90;8.50;;;19.30;48.40;;;;;;5006739;28;20448;-53
2023/04/19 11:19:17;;;;;;;8.93;8.07;;;19.40;48.60;;;;;;5007074;28;20433;-53
2023/04/19 11:21:45;;;;;;;9.67;8.67;;;19.40;48.80;;;;;;5007782;28;20213;-53
2023/04/19 11:24:11;;;;;;;11.90;9.67;;;19.20;49.20;;;;;;5006319;28;20499;-53
2023/04/19 11:26:37;;;;;;;9.27;8.30;;;19.10;50.00;;;;;;5006113;28;20544;-52
2023/04/19 11:29:03;;;;;;;11.00;9.90;;;19.00;50.50;;;;;;5006889;28;20938;-52
2023/04/19 11:31:31;;;;;;;10.77;9.70;;;18.80;50.90;;;;;;5008005;28;20544;-52
2023/04/19 11:33:59;;;;;;;15.63;10.47;;;18.50;52.60;;;;;;5003851;28;20455;-52
2023/04/19 11:36:24;;;;;;;11.60;10.40;;;18.40;53.90;;;;;;4998005;28;20547;-50
2023/04/19 11:38:51;;;;;;;15.07;10.63;;;18.30;54.50;;;;;;5004585;28;20444;-48
2023/04/19 11:41:17;;;;;;;12.53;11.17;;;18.00;55.10;;;;;;5002525;28;20194;-52
2023/04/19 11:43:47;;;;;;;12.23;10.30;;;17.80;55.70;;;;;;5001717;28;20550;-48
2023/04/19 11:46:13;;;;;;;12.20;11.00;;;17.80;56.40;;;;;;5002681;28;20186;-52
2023/04/19 11:48:49;;;;;;;13.10;11.70;;;17.90;56.30;;;;;;4999309;28;21530;-49
2023/04/19 11:51:15;;;;;;;12.97;11.63;;;18.00;56.10;;;;;;4998706;28;20816;-48
2023/04/19 11:53:41;;;;;;;12.50;11.30;;;18.10;55.90;;;;;;5006761;28;20480;-48
2023/04/19 11:56:08;;;;;;;12.80;11.40;;;18.10;55.90;;;;;;4998248;28;20447;-49
2023/04/19 11:58:50;;;;;;;14.67;11.47;;;18.10;56.40;;;;;;4999068;28;20236;-49
2023/04/19 12:01:20;;;;;;;14.50;12.20;;;18.20;56.30;;;;;;5006510;28;20425;-51
2023/04/19 12:03:55;;;;;;;12.90;11.57;;;18.30;56.00;;;;;;4997136;28;20496;-51
2023/04/19 12:06:25;;;;;;;13.43;11.80;;;18.40;55.90;;;;;;4997818;28;20457;-51
2023/04/19 12:08:52;;;;;;;13.93;12.53;;;18.20;56.00;;;;;;4993462;28;20570;-47
2023/04/19 12:11:20;;;;;;;15.97;14.37;;;17.80;56.40;;;;;;5008789;28;20866;-47
2023/04/19 12:13:46;;;;;;;14.37;12.90;;;17.60;56.70;;;;;;5002502;28;20937;-49
2023/04/19 12:16:13;;;;;;;15.73;14.13;;;17.20;57.40;;;;;;5007491;28;20445;-48
2023/04/19 12:18:51;;;;;;;15.77;14.17;;;17.30;57.60;;;;;;5008309;28;20511;-49
2023/04/19 12:21:31;;;;;;;15.67;14.07;;;17.50;57.30;;;;;;5003694;28;20956;-48
2023/04/19 12:23:58;;;;;;;14.93;12.97;;;17.40;56.50;;;;;;5008631;28;20497;-48
2023/04/19 12:26:27;;;;;;;16.70;14.90;;;17.30;56.50;;;;;;5002651;28;20452;-49
2023/04/19 12:28:53;;;;;;;15.83;14.23;;;17.10;57.10;;;;;;5009446;28;20440;-47
2023/04/19 12:31:19;;;;;;;17.30;15.43;;;16.90;57.60;;;;;;5010585;28;20459;-49
2023/04/19 12:33:45;;;;;;;21.33;14.47;;;17.00;57.90;;;;;;5008437;28;21492;-50
2023/04/19 12:36:11;;;;;;;15.03;13.37;;;17.00;57.60;;;;;;5002619;28;20923;-48